Strona główna
Zdjęcia satelitarne 15-dni prognozyKlimatMeteorologia morska Cyklony Błyskawica LotniskoFAQ Gazetka O
Pogoda : Europa Afryka Ameryka Północna Ameryka Południowa Azja Australia-Oceania Inny
Języki Kontakt

Albert, Francja

Albert-Picardie

Szerokość geograficzna: 49-58-21N, Długość geograficzna: 002-41-29E, wysokość: 111 m


METAR: LFAQ 221800Z AUTO 22014KT 9999 BKN009 OVC013 10/09 Q1023
TAF: LFAQ 221400Z 2215/2224 22015KT 9999 OVC012 TEMPO 2215/2224 5000 DZ OVC007

czas: 19:22 (18:22 UTC)

Aktualna obserwacja pogody

Raport powstał 22 minut temu, godzina 18:00 UTC
Wiatr 14 kt od południowy zachód
Temperatura 10°C
Wilgotność 93%
Ciśnienie 1023 hPa
Widzialność 10 km lub więcej
Przerywane chmury na wysokości 900 ft
Zachmurzenie całkowite na wysokości 1300 ft

Jednostka miary

Prognoza

Raport powstał 4 godziny i 22 minut temu, godzina 14:00 UTC
Prognoza ważna od 22 godzina 15 UTC do 22 godzina 24 UTC
Wiatr 15 kt od południowy zachód
Widzialność 10 km lub więcej
Zachmurzenie całkowite na wysokości 1200 ft
Przejściowo
od 22 godzina 15 UTC do 22 godzina 24 UTC
Widzialność: 5000 m
Zachmurzenie całkowite na wysokości 700 ft
mżawka
Informacje na tej stronie internetowej podlegają klauzuli o wyłączeniu odpowiedzialności
Pogoda : Europa Afryka Ameryka Północna Ameryka Południowa Azja Australia-Oceania Inny
Zdjęcia satelitarne 15-dni prognozyKlimatMeteorologia morska Cyklony Błyskawica LotniskoFAQ Języki Kontakt Gazetka O